sensor_id;sensor_type;location;lat;lon;timestamp;pressure;altitude;pressure_sealevel;temperature;humidity
9774;BME280;4926;42.670;23.316;2023-04-07T00:00:33;94213.91;;;3.77;56.34
9774;BME280;4926;42.670;23.316;2023-04-07T00:03:00;94209.91;;;3.75;55.91
9774;BME280;4926;42.670;23.316;2023-04-07T00:05:32;94215.28;;;3.85;55.54
9774;BME280;4926;42.670;23.316;2023-04-07T00:07:59;94213.38;;;3.80;55.21
9774;BME280;4926;42.670;23.316;2023-04-07T00:10:31;94204.09;;;3.68;55.24
9774;BME280;4926;42.670;23.316;2023-04-07T00:12:58;94209.38;;;3.73;55.54
9774;BME280;4926;42.670;23.316;2023-04-07T00:15:28;94208.34;;;3.74;55.16
9774;BME280;4926;42.670;23.316;2023-04-07T00:17:57;94214.41;;;3.74;54.79
9774;BME280;4926;42.670;23.316;2023-04-07T00:20:24;94198.06;;;3.67;55.29
9774;BME280;4926;42.670;23.316;2023-04-07T00:22:52;94208.34;;;3.74;55.09
9774;BME280;4926;42.670;23.316;2023-04-07T00:25:24;94217.78;;;3.70;55.03
9774;BME280;4926;42.670;23.316;2023-04-07T00:27:53;94212.19;;;3.61;55.44
9774;BME280;4926;42.670;23.316;2023-04-07T00:30:20;94207.75;;;3.62;55.21
9774;BME280;4926;42.670;23.316;2023-04-07T00:32:47;94205.88;;;3.62;55.79
9774;BME280;4926;42.670;23.316;2023-04-07T00:35:15;94202.28;;;3.73;55.56
9774;BME280;4926;42.670;23.316;2023-04-07T00:37:44;94201.44;;;3.68;55.30
9774;BME280;4926;42.670;23.316;2023-04-07T00:40:11;94189.34;;;3.67;55.41
9774;BME280;4926;42.670;23.316;2023-04-07T00:42:37;94201.00;;;3.76;55.25
9774;BME280;4926;42.670;23.316;2023-04-07T00:45:07;94205.72;;;3.74;54.90
9774;BME280;4926;42.670;23.316;2023-04-07T00:47:34;94203.06;;;3.69;54.60
9774;BME280;4926;42.670;23.316;2023-04-07T00:50:02;94207.25;;;3.70;55.11
9774;BME280;4926;42.670;23.316;2023-04-07T00:52:31;94194.59;;;3.62;55.32
9774;BME280;4926;42.670;23.316;2023-04-07T00:54:58;94210.72;;;3.75;55.09
9774;BME280;4926;42.670;23.316;2023-04-07T00:57:27;94207.78;;;3.67;54.95
9774;BME280;4926;42.670;23.316;2023-04-07T00:59:54;94201.44;;;3.68;55.31
9774;BME280;4926;42.670;23.316;2023-04-07T01:02:28;94194.88;;;3.65;54.62
9774;BME280;4926;42.670;23.316;2023-04-07T01:05:04;94198.28;;;3.66;54.92
9774;BME280;4926;42.670;23.316;2023-04-07T01:07:35;94198.75;;;3.58;54.88
9774;BME280;4926;42.670;23.316;2023-04-07T01:10:11;94196.69;;;3.65;55.10
9774;BME280;4926;42.670;23.316;2023-04-07T01:12:48;94197.22;;;3.62;55.31
9774;BME280;4926;42.670;23.316;2023-04-07T01:15:20;94191.47;;;3.70;54.71
9774;BME280;4926;42.670;23.316;2023-04-07T01:17:54;94182.47;;;3.61;55.19
9774;BME280;4926;42.670;23.316;2023-04-07T01:20:26;94191.91;;;3.57;55.39
9774;BME280;4926;42.670;23.316;2023-04-07T01:23:01;94181.41;;;3.57;55.52
9774;BME280;4926;42.670;23.316;2023-04-07T01:26:06;94184.34;;;3.65;54.52
9774;BME280;4926;42.670;23.316;2023-04-07T01:28:55;94184.38;;;3.70;55.07
9774;BME280;4926;42.670;23.316;2023-04-07T01:31:29;94175.63;;;3.60;54.47
9774;BME280;4926;42.670;23.316;2023-04-07T01:33:58;94175.59;;;3.55;54.82
9774;BME280;4926;42.670;23.316;2023-04-07T01:36:27;94186.13;;;3.55;54.57
9774;BME280;4926;42.670;23.316;2023-04-07T01:38:55;94180.88;;;3.60;54.91
9774;BME280;4926;42.670;23.316;2023-04-07T01:41:25;94178.19;;;3.50;55.60
9774;BME280;4926;42.670;23.316;2023-04-07T01:43:53;94174.06;;;3.64;55.15
9774;BME280;4926;42.670;23.316;2023-04-07T01:46:20;94178.56;;;3.68;53.96
9774;BME280;4926;42.670;23.316;2023-04-07T01:48:50;94176.19;;;3.67;53.69
9774;BME280;4926;42.670;23.316;2023-04-07T01:51:17;94172.31;;;3.74;54.61
9774;BME280;4926;42.670;23.316;2023-04-07T01:53:45;94172.88;;;3.81;54.43
9774;BME280;4926;42.670;23.316;2023-04-07T01:56:13;94166.28;;;3.84;53.79
9774;BME280;4926;42.670;23.316;2023-04-07T01:58:41;94170.56;;;3.90;53.74
9774;BME280;4926;42.670;23.316;2023-04-07T02:01:08;94162.16;;;3.98;53.63
9774;BME280;4926;42.670;23.316;2023-04-07T02:03:40;94152.66;;;3.92;54.04
9774;BME280;4926;42.670;23.316;2023-04-07T02:06:12;94158.44;;;3.94;53.30
9774;BME280;4926;42.670;23.316;2023-04-07T02:08:45;94157.69;;;3.98;53.14
9774;BME280;4926;42.670;23.316;2023-04-07T02:11:15;94155.09;;;4.08;53.20
9774;BME280;4926;42.670;23.316;2023-04-07T02:13:45;94155.38;;;4.07;52.33
9774;BME280;4926;42.670;23.316;2023-04-07T02:16:12;94158.53;;;4.09;53.05
9774;BME280;4926;42.670;23.316;2023-04-07T02:18:41;94155.88;;;4.04;52.53
9774;BME280;4926;42.670;23.316;2023-04-07T02:21:11;94151.38;;;4.04;52.40
9774;BME280;4926;42.670;23.316;2023-04-07T02:23:39;94158.53;;;4.04;52.39
9774;BME280;4926;42.670;23.316;2023-04-07T02:26:06;94147.44;;;4.02;51.69
9774;BME280;4926;42.670;23.316;2023-04-07T02:28:35;94156.94;;;4.08;52.28
9774;BME280;4926;42.670;23.316;2023-04-07T02:31:07;94143.53;;;4.09;52.22
9774;BME280;4926;42.670;23.316;2023-04-07T02:33:35;94155.38;;;4.12;52.10
9774;BME280;4926;42.670;23.316;2023-04-07T02:36:02;94146.41;;;4.08;51.63
9774;BME280;4926;42.670;23.316;2023-04-07T02:38:30;94157.50;;;4.15;51.88
9774;BME280;4926;42.670;23.316;2023-04-07T02:40:57;94161.19;;;4.14;52.14
9774;BME280;4926;42.670;23.316;2023-04-07T02:43:24;94154.66;;;4.21;51.08
9774;BME280;4926;42.670;23.316;2023-04-07T02:45:50;94150.69;;;4.24;51.71
9774;BME280;4926;42.670;23.316;2023-04-07T02:48:19;94150.72;;;4.29;51.38
9774;BME280;4926;42.670;23.316;2023-04-07T02:50:46;94157.59;;;4.35;51.35
9774;BME280;4926;42.670;23.316;2023-04-07T02:53:12;94152.31;;;4.25;51.31
9774;BME280;4926;42.670;23.316;2023-04-07T02:55:41;94154.41;;;4.23;51.34
9774;BME280;4926;42.670;23.316;2023-04-07T02:58:07;94157.56;;;4.25;51.51
9774;BME280;4926;42.670;23.316;2023-04-07T03:00:34;94156.50;;;4.26;51.50
9774;BME280;4926;42.670;23.316;2023-04-07T03:03:03;94187.28;;;4.20;57.13
9774;BME280;4926;42.670;23.316;2023-04-07T03:05:30;94208.16;;;3.85;61.22
9774;BME280;4926;42.670;23.316;2023-04-07T03:07:57;94210.50;;;3.82;61.98
9774;BME280;4926;42.670;23.316;2023-04-07T03:10:24;94206.84;;;3.83;61.94
9774;BME280;4926;42.670;23.316;2023-04-07T03:12:55;94198.81;;;3.68;59.82
9774;BME280;4926;42.670;23.316;2023-04-07T03:15:22;94181.81;;;3.80;55.35
9774;BME280;4926;42.670;23.316;2023-04-07T03:17:51;94184.25;;;3.92;54.14
9774;BME280;4926;42.670;23.316;2023-04-07T03:20:20;94177.44;;;4.01;53.12
9774;BME280;4926;42.670;23.316;2023-04-07T03:22:47;94170.09;;;4.08;53.26
9774;BME280;4926;42.670;23.316;2023-04-07T03:25:14;94175.19;;;4.19;53.15
9774;BME280;4926;42.670;23.316;2023-04-07T03:27:41;94165.41;;;4.20;53.20
9774;BME280;4926;42.670;23.316;2023-04-07T03:30:10;94162.28;;;4.18;53.10
9774;BME280;4926;42.670;23.316;2023-04-07T03:32:36;94164.63;;;4.09;52.86
9774;BME280;4926;42.670;23.316;2023-04-07T03:35:03;94164.31;;;4.06;52.54
9774;BME280;4926;42.670;23.316;2023-04-07T03:37:30;94161.44;;;4.07;52.78
9774;BME280;4926;42.670;23.316;2023-04-07T03:39:57;94161.69;;;4.06;52.80
9774;BME280;4926;42.670;23.316;2023-04-07T03:42:24;94166.41;;;4.04;52.63
9774;BME280;4926;42.670;23.316;2023-04-07T03:44:55;94164.53;;;3.99;52.96
9774;BME280;4926;42.670;23.316;2023-04-07T03:47:23;94172.75;;;4.08;52.31
9774;BME280;4926;42.670;23.316;2023-04-07T03:49:50;94168.00;;;4.10;52.81
9774;BME280;4926;42.670;23.316;2023-04-07T03:52:17;94180.19;;;4.16;53.23
9774;BME280;4926;42.670;23.316;2023-04-07T03:54:43;94174.34;;;4.09;52.77
9774;BME280;4926;42.670;23.316;2023-04-07T03:57:10;94175.66;;;4.11;52.68
9774;BME280;4926;42.670;23.316;2023-04-07T03:59:40;94174.34;;;4.09;53.05
9774;BME280;4926;42.670;23.316;2023-04-07T04:02:15;94184.34;;;4.07;53.07
9774;BME280;4926;42.670;23.316;2023-04-07T04:04:43;94172.75;;;4.08;53.45
9774;BME280;4926;42.670;23.316;2023-04-07T04:07:10;94174.88;;;4.06;52.92
9774;BME280;4926;42.670;23.316;2023-04-07T04:09:40;94188.03;;;4.06;53.49
9774;BME280;4926;42.670;23.316;2023-04-07T04:12:07;94182.78;;;4.11;53.32
9774;BME280;4926;42.670;23.316;2023-04-07T04:14:34;94183.84;;;4.15;52.77
9774;BME280;4926;42.670;23.316;2023-04-07T04:17:00;94182.31;;;4.24;53.28
9774;BME280;4926;42.670;23.316;2023-04-07T04:19:27;94176.00;;;4.25;52.47
9774;BME280;4926;42.670;23.316;2023-04-07T04:21:55;94181.00;;;4.21;52.11
9774;BME280;4926;42.670;23.316;2023-04-07T04:24:22;94183.38;;;4.23;52.28
9774;BME280;4926;42.670;23.316;2023-04-07T04:26:48;94182.28;;;4.19;52.23
9774;BME280;4926;42.670;23.316;2023-04-07T04:29:15;94188.63;;;4.18;52.56
9774;BME280;4926;42.670;23.316;2023-04-07T04:31:42;94188.38;;;4.24;52.09
9774;BME280;4926;42.670;23.316;2023-04-07T04:34:08;94198.16;;;4.34;52.35
9774;BME280;4926;42.670;23.316;2023-04-07T04:36:37;94183.41;;;4.33;52.12
9774;BME280;4926;42.670;23.316;2023-04-07T04:39:09;94184.00;;;4.50;51.65
9774;BME280;4926;42.670;23.316;2023-04-07T04:41:39;94188.25;;;4.61;51.70
9774;BME280;4926;42.670;23.316;2023-04-07T04:44:05;94192.47;;;4.62;51.58
9774;BME280;4926;42.670;23.316;2023-04-07T04:46:32;94210.56;;;4.38;55.79
9774;BME280;4926;42.670;23.316;2023-04-07T04:48:59;94220.84;;;4.35;57.86
9774;BME280;4926;42.670;23.316;2023-04-07T04:51:25;94230.59;;;4.44;58.35
9774;BME280;4926;42.670;23.316;2023-04-07T04:53:52;94233.25;;;4.44;59.71
9774;BME280;4926;42.670;23.316;2023-04-07T04:56:20;94237.19;;;4.42;60.86
9774;BME280;4926;42.670;23.316;2023-04-07T04:58:52;94237.47;;;4.40;61.18
9774;BME280;4926;42.670;23.316;2023-04-07T05:01:19;94241.38;;;4.38;61.41
9774;BME280;4926;42.670;23.316;2023-04-07T05:03:45;94252.44;;;4.35;61.77
9774;BME280;4926;42.670;23.316;2023-04-07T05:06:12;94251.09;;;3.91;62.21
9774;BME280;4926;42.670;23.316;2023-04-07T05:08:39;94255.44;;;3.38;64.65
9774;BME280;4926;42.670;23.316;2023-04-07T05:11:05;94272.06;;;3.17;65.47
9774;BME280;4926;42.670;23.316;2023-04-07T05:13:34;94264.31;;;3.32;65.53
9774;BME280;4926;42.670;23.316;2023-04-07T05:16:06;94261.75;;;3.37;65.08
9774;BME280;4926;42.670;23.316;2023-04-07T05:18:33;94267.91;;;3.21;65.87
9774;BME280;4926;42.670;23.316;2023-04-07T05:20:59;94278.72;;;3.52;65.42
9774;BME280;4926;42.670;23.316;2023-04-07T05:23:27;94285.22;;;3.76;65.64
9774;BME280;4926;42.670;23.316;2023-04-07T05:25:54;94282.13;;;3.84;65.95
9774;BME280;4926;42.670;23.316;2023-04-07T05:28:21;94290.78;;;3.79;65.53
9774;BME280;4926;42.670;23.316;2023-04-07T05:30:49;94288.13;;;3.74;65.29
9774;BME280;4926;42.670;23.316;2023-04-07T05:33:16;94292.94;;;3.87;64.64
9774;BME280;4926;42.670;23.316;2023-04-07T05:35:43;94276.03;;;4.15;63.82
9774;BME280;4926;42.670;23.316;2023-04-07T05:38:12;94282.22;;;4.35;63.22
9774;BME280;4926;42.670;23.316;2023-04-07T05:40:39;94268.00;;;4.36;62.44
9774;BME280;4926;42.670;23.316;2023-04-07T05:43:11;94267.56;;;4.54;62.48
9774;BME280;4926;42.670;23.316;2023-04-07T05:45:38;94264.63;;;4.46;61.05
9774;BME280;4926;42.670;23.316;2023-04-07T05:48:08;94260.25;;;4.67;59.53
9774;BME280;4926;42.670;23.316;2023-04-07T05:50:38;94249.19;;;4.75;58.79
9774;BME280;4926;42.670;23.316;2023-04-07T05:53:05;94262.59;;;4.63;59.97
9774;BME280;4926;42.670;23.316;2023-04-07T05:55:33;94275.53;;;4.70;60.73
9774;BME280;4926;42.670;23.316;2023-04-07T05:58:05;94266.63;;;4.76;59.40
9774;BME280;4926;42.670;23.316;2023-04-07T06:00:39;94260.81;;;4.74;58.79
9774;BME280;4926;42.670;23.316;2023-04-07T06:03:06;94255.81;;;4.77;59.77
9774;BME280;4926;42.670;23.316;2023-04-07T06:05:34;94278.44;;;4.68;60.56
9774;BME280;4926;42.670;23.316;2023-04-07T06:08:01;94275.03;;;4.26;61.78
9774;BME280;4926;42.670;23.316;2023-04-07T06:10:28;94273.53;;;4.35;62.24
9774;BME280;4926;42.670;23.316;2023-04-07T06:12:54;94270.00;;;4.66;61.71
9774;BME280;4926;42.670;23.316;2023-04-07T06:15:21;94266.28;;;4.62;61.04
9774;BME280;4926;42.670;23.316;2023-04-07T06:17:48;94277.94;;;4.81;61.49
9774;BME280;4926;42.670;23.316;2023-04-07T06:20:15;94281.66;;;4.80;59.92
9774;BME280;4926;42.670;23.316;2023-04-07T06:22:43;94261.91;;;4.88;60.88
9774;BME280;4926;42.670;23.316;2023-04-07T06:25:09;94256.91;;;4.86;59.94
9774;BME280;4926;42.670;23.316;2023-04-07T06:27:36;94267.47;;;4.86;60.12
9774;BME280;4926;42.670;23.316;2023-04-07T06:30:03;94266.44;;;5.02;60.16
9774;BME280;4926;42.670;23.316;2023-04-07T06:32:30;94270.16;;;5.06;59.32
9774;BME280;4926;42.670;23.316;2023-04-07T06:34:57;94262.25;;;5.16;59.42
9774;BME280;4926;42.670;23.316;2023-04-07T06:37:24;94257.56;;;5.53;57.94
9774;BME280;4926;42.670;23.316;2023-04-07T06:39:52;94249.38;;;5.55;57.54
9774;BME280;4926;42.670;23.316;2023-04-07T06:42:19;94257.63;;;5.94;58.18
9774;BME280;4926;42.670;23.316;2023-04-07T06:44:46;94245.94;;;6.30;55.99
9774;BME280;4926;42.670;23.316;2023-04-07T06:47:12;94227.09;;;6.56;51.83
9774;BME280;4926;42.670;23.316;2023-04-07T06:49:39;94232.06;;;6.78;51.22
9774;BME280;4926;42.670;23.316;2023-04-07T06:52:07;94208.13;;;7.08;48.47
9774;BME280;4926;42.670;23.316;2023-04-07T06:54:34;94198.34;;;7.42;47.71
9774;BME280;4926;42.670;23.316;2023-04-07T06:57:02;94218.53;;;7.72;49.71
9774;BME280;4926;42.670;23.316;2023-04-07T06:59:29;94215.91;;;8.01;50.45
9774;BME280;4926;42.670;23.316;2023-04-07T07:01:56;94215.34;;;8.04;47.76
9774;BME280;4926;42.670;23.316;2023-04-07T07:04:22;94187.59;;;7.96;45.06
9774;BME280;4926;42.670;23.316;2023-04-07T07:06:49;94194.25;;;7.93;45.36
9774;BME280;4926;42.670;23.316;2023-04-07T07:09:16;94183.97;;;7.87;44.53
9774;BME280;4926;42.670;23.316;2023-04-07T07:11:42;94191.09;;;7.91;44.73
9774;BME280;4926;42.670;23.316;2023-04-07T07:14:10;94173.81;;;7.65;44.55
9774;BME280;4926;42.670;23.316;2023-04-07T07:16:37;94197.09;;;7.68;44.84
9774;BME280;4926;42.670;23.316;2023-04-07T07:19:04;94191.13;;;8.15;44.25
9774;BME280;4926;42.670;23.316;2023-04-07T07:21:31;94186.06;;;8.19;43.91
9774;BME280;4926;42.670;23.316;2023-04-07T07:23:57;94177.13;;;8.10;44.34
9774;BME280;4926;42.670;23.316;2023-04-07T07:26:24;94179.31;;;8.31;44.17
9774;BME280;4926;42.670;23.316;2023-04-07T07:28:54;94177.41;;;8.37;43.59
9774;BME280;4926;42.670;23.316;2023-04-07T07:31:22;94186.81;;;8.24;43.67
9774;BME280;4926;42.670;23.316;2023-04-07T07:33:49;94179.16;;;7.94;44.05
9774;BME280;4926;42.670;23.316;2023-04-07T07:36:16;94186.88;;;7.90;44.64
9774;BME280;4926;42.670;23.316;2023-04-07T07:38:43;94188.72;;;8.19;43.89
9774;BME280;4926;42.670;23.316;2023-04-07T07:41:09;94194.50;;;8.21;44.20
9774;BME280;4926;42.670;23.316;2023-04-07T07:43:38;94192.94;;;8.20;44.14
9774;BME280;4926;42.670;23.316;2023-04-07T07:46:05;94194.50;;;8.21;43.89
9774;BME280;4926;42.670;23.316;2023-04-07T07:48:33;94194.47;;;8.31;43.80
9774;BME280;4926;42.670;23.316;2023-04-07T07:51:02;94197.44;;;8.48;43.66
9774;BME280;4926;42.670;23.316;2023-04-07T07:53:29;94191.63;;;8.46;43.73
9774;BME280;4926;42.670;23.316;2023-04-07T07:55:55;94195.94;;;8.65;42.87
9774;BME280;4926;42.670;23.316;2023-04-07T07:58:22;94186.75;;;8.76;42.84
9774;BME280;4926;42.670;23.316;2023-04-07T08:00:52;94189.31;;;9.05;42.75
9774;BME280;4926;42.670;23.316;2023-04-07T08:03:19;94183.38;;;9.13;42.37
9774;BME280;4926;42.670;23.316;2023-04-07T08:05:51;94179.28;;;9.02;42.32
9774;BME280;4926;42.670;23.316;2023-04-07T08:08:18;94185.50;;;8.92;42.64
9774;BME280;4926;42.670;23.316;2023-04-07T08:10:44;94179.91;;;8.94;43.05
9774;BME280;4926;42.670;23.316;2023-04-07T08:13:14;94178.91;;;9.27;42.55
9774;BME280;4926;42.670;23.316;2023-04-07T08:15:45;94184.72;;;9.11;41.73
9774;BME280;4926;42.670;23.316;2023-04-07T08:18:12;94175.84;;;9.20;41.97
9774;BME280;4926;42.670;23.316;2023-04-07T08:20:38;94185.09;;;9.60;41.87
9774;BME280;4926;42.670;23.316;2023-04-07T08:23:06;94170.59;;;9.84;41.03
9774;BME280;4926;42.670;23.316;2023-04-07T08:25:35;94178.72;;;9.42;41.27
9774;BME280;4926;42.670;23.316;2023-04-07T08:28:04;94191.19;;;9.23;42.32
9774;BME280;4926;42.670;23.316;2023-04-07T08:30:31;94178.97;;;8.61;42.71
9774;BME280;4926;42.670;23.316;2023-04-07T08:33:04;94179.97;;;8.89;43.10
9774;BME280;4926;42.670;23.316;2023-04-07T08:35:31;94178.63;;;8.68;43.38
9774;BME280;4926;42.670;23.316;2023-04-07T08:37:58;94182.81;;;8.74;43.50
9774;BME280;4926;42.670;23.316;2023-04-07T08:40:26;94191.03;;;8.96;42.67
9774;BME280;4926;42.670;23.316;2023-04-07T08:42:54;94182.53;;;8.94;42.46
9774;BME280;4926;42.670;23.316;2023-04-07T08:45:22;94180.28;;;9.06;42.63
9774;BME280;4926;42.670;23.316;2023-04-07T08:47:54;94183.66;;;9.49;42.32
9774;BME280;4926;42.670;23.316;2023-04-07T08:50:25;94177.50;;;9.85;41.77
9774;BME280;4926;42.670;23.316;2023-04-07T08:52:53;94165.03;;;10.45;41.35
9774;BME280;4926;42.670;23.316;2023-04-07T08:55:28;94158.72;;;10.82;39.84
9774;BME280;4926;42.670;23.316;2023-04-07T08:57:57;94154.56;;;10.49;39.18
9774;BME280;4926;42.670;23.316;2023-04-07T09:00:26;94157.50;;;10.20;39.50
9774;BME280;4926;42.670;23.316;2023-04-07T09:02:54;94153.66;;;10.13;40.08
9774;BME280;4926;42.670;23.316;2023-04-07T09:05:21;94149.81;;;10.32;40.10
9774;BME280;4926;42.670;23.316;2023-04-07T09:07:49;94146.50;;;10.54;39.81
9774;BME280;4926;42.670;23.316;2023-04-07T09:10:16;94148.84;;;10.82;39.84
9774;BME280;4926;42.670;23.316;2023-04-07T09:12:44;94135.34;;;11.28;39.05
9774;BME280;4926;42.670;23.316;2023-04-07T09:15:11;94132.25;;;11.70;38.45
9774;BME280;4926;42.670;23.316;2023-04-07T09:17:37;94128.63;;;11.97;37.37
9774;BME280;4926;42.670;23.316;2023-04-07T09:20:05;94134.59;;;11.94;37.49
9774;BME280;4926;42.670;23.316;2023-04-07T09:22:36;94135.84;;;11.52;38.55
9774;BME280;4926;42.670;23.316;2023-04-07T09:25:12;94134.84;;;11.26;38.92
9774;BME280;4926;42.670;23.316;2023-04-07T09:30:22;94148.25;;;10.18;40.15
9774;BME280;4926;42.670;23.316;2023-04-07T09:32:49;94154.88;;;10.01;40.35
9774;BME280;4926;42.670;23.316;2023-04-07T09:35:15;94154.16;;;10.15;40.04
9774;BME280;4926;42.670;23.316;2023-04-07T09:37:42;94171.31;;;10.36;39.84
9774;BME280;4926;42.670;23.316;2023-04-07T09:40:09;94154.88;;;10.47;39.92
9774;BME280;4926;42.670;23.316;2023-04-07T09:42:43;94166.97;;;10.40;39.85
9774;BME280;4926;42.670;23.316;2023-04-07T09:45:10;94168.47;;;10.46;39.98
9774;BME280;4926;42.670;23.316;2023-04-07T09:47:39;94168.53;;;10.13;40.05
9774;BME280;4926;42.670;23.316;2023-04-07T09:50:06;94175.88;;;10.03;40.39
9774;BME280;4926;42.670;23.316;2023-04-07T09:52:50;94172.75;;;9.82;40.85
9774;BME280;4926;42.670;23.316;2023-04-07T09:55:19;94192.63;;;9.85;41.15
9774;BME280;4926;42.670;23.316;2023-04-07T09:57:47;94191.03;;;10.02;41.32
9774;BME280;4926;42.670;23.316;2023-04-07T10:00:15;94187.22;;;10.41;40.98
9774;BME280;4926;42.670;23.316;2023-04-07T10:02:43;94170.19;;;11.18;39.88
9774;BME280;4926;42.670;23.316;2023-04-07T10:05:13;94155.44;;;11.92;38.69
9774;BME280;4926;42.670;23.316;2023-04-07T10:07:40;94144.94;;;11.95;38.36
9774;BME280;4926;42.670;23.316;2023-04-07T10:10:08;94155.38;;;12.05;38.33
9774;BME280;4926;42.670;23.316;2023-04-07T10:12:38;94147.59;;;11.51;38.75
9774;BME280;4926;42.670;23.316;2023-04-07T10:15:06;94148.63;;;10.92;39.21
9774;BME280;4926;42.670;23.316;2023-04-07T10:17:35;94167.69;;;10.59;39.72
9774;BME280;4926;42.670;23.316;2023-04-07T10:20:06;94171.53;;;10.53;40.00
9774;BME280;4926;42.670;23.316;2023-04-07T10:22:34;94158.66;;;9.82;41.21
9774;BME280;4926;42.670;23.316;2023-04-07T10:25:05;94178.88;;;9.64;42.02
9774;BME280;4926;42.670;23.316;2023-04-07T10:27:44;94179.19;;;9.63;41.89
9774;BME280;4926;42.670;23.316;2023-04-07T10:30:17;94198.78;;;9.48;42.43
9774;BME280;4926;42.670;23.316;2023-04-07T10:32:46;94203.41;;;9.43;42.70
9774;BME280;4926;42.670;23.316;2023-04-07T10:35:15;94204.03;;;9.72;42.42
9774;BME280;4926;42.670;23.316;2023-04-07T10:38:09;94196.69;;;9.82;42.17
9774;BME280;4926;42.670;23.316;2023-04-07T10:40:38;94200.88;;;9.70;42.12
9774;BME280;4926;42.670;23.316;2023-04-07T10:43:06;94202.34;;;9.94;41.92
9774;BME280;4926;42.670;23.316;2023-04-07T10:45:55;94206.97;;;10.02;42.10
9774;BME280;4926;42.670;23.316;2023-04-07T10:48:24;94222.16;;;9.51;43.70
9774;BME280;4926;42.670;23.316;2023-04-07T10:51:14;94216.31;;;9.49;44.02
9774;BME280;4926;42.670;23.316;2023-04-07T10:57:10;94226.00;;;9.59;44.44
9774;BME280;4926;42.670;23.316;2023-04-07T10:59:41;94221.78;;;9.39;44.88
9774;BME280;4926;42.670;23.316;2023-04-07T11:02:32;94227.53;;;9.46;44.74
9774;BME280;4926;42.670;23.316;2023-04-07T11:05:02;94230.56;;;9.58;44.41
9774;BME280;4926;42.670;23.316;2023-04-07T11:07:48;94232.19;;;9.54;44.95
9774;BME280;4926;42.670;23.316;2023-04-07T11:10:15;94242.59;;;9.32;45.34
9774;BME280;4926;42.670;23.316;2023-04-07T11:12:43;94235.28;;;9.61;45.49
9774;BME280;4926;42.670;23.316;2023-04-07T11:15:18;94233.09;;;9.82;44.64
9774;BME280;4926;42.670;23.316;2023-04-07T11:17:45;94227.28;;;9.80;44.79
9774;BME280;4926;42.670;23.316;2023-04-07T11:20:11;94231.56;;;9.94;44.84
9774;BME280;4926;42.670;23.316;2023-04-07T11:22:38;94227.69;;;10.05;44.36
9774;BME280;4926;42.670;23.316;2023-04-07T11:25:21;94245.97;;;9.75;45.22
9774;BME280;4926;42.670;23.316;2023-04-07T11:27:52;94234.25;;;9.94;44.75
9774;BME280;4926;42.670;23.316;2023-04-07T11:30:19;94231.66;;;9.89;44.73
9774;BME280;4926;42.670;23.316;2023-04-07T11:32:47;94241.22;;;9.90;44.70
9774;BME280;4926;42.670;23.316;2023-04-07T11:35:15;94246.44;;;9.95;44.76
9774;BME280;4926;42.670;23.316;2023-04-07T11:37:42;94238.16;;;9.65;45.08
9774;BME280;4926;42.670;23.316;2023-04-07T11:40:09;94248.75;;;9.83;45.34
9774;BME280;4926;42.670;23.316;2023-04-07T11:42:39;94251.38;;;9.51;45.77
9774;BME280;4926;42.670;23.316;2023-04-07T11:45:15;94247.41;;;9.30;46.33
9774;BME280;4926;42.670;23.316;2023-04-07T11:47:43;94241.38;;;9.43;46.41
9774;BME280;4926;42.670;23.316;2023-04-07T11:50:13;94251.81;;;9.58;46.44
9774;BME280;4926;42.670;23.316;2023-04-07T11:52:40;94240.31;;;9.63;45.70
9774;BME280;4926;42.670;23.316;2023-04-07T11:55:16;94252.50;;;9.82;45.89
9774;BME280;4926;42.670;23.316;2023-04-07T11:57:45;94257.06;;;9.95;46.12
9774;BME280;4926;42.670;23.316;2023-04-07T12:00:13;94251.91;;;9.85;46.09
9774;BME280;4926;42.670;23.316;2023-04-07T12:02:42;94258.31;;;9.66;46.47
9774;BME280;4926;42.670;23.316;2023-04-07T12:05:12;94244.63;;;9.77;46.55
9774;BME280;4926;42.670;23.316;2023-04-07T12:07:39;94252.63;;;10.09;45.84
9774;BME280;4926;42.670;23.316;2023-04-07T12:10:19;94248.22;;;10.19;45.92
9774;BME280;4926;42.670;23.316;2023-04-07T12:12:48;94248.53;;;10.17;45.59
9774;BME280;4926;42.670;23.316;2023-04-07T12:15:16;94237.16;;;10.44;45.17
9774;BME280;4926;42.670;23.316;2023-04-07T12:17:47;94246.06;;;10.53;45.11
9774;BME280;4926;42.670;23.316;2023-04-07T12:20:16;94232.47;;;10.68;44.40
9774;BME280;4926;42.670;23.316;2023-04-07T12:22:46;94237.19;;;10.71;44.78
9774;BME280;4926;42.670;23.316;2023-04-07T12:25:18;94236.56;;;10.47;44.94
9774;BME280;4926;42.670;23.316;2023-04-07T12:27:44;94245.66;;;9.95;45.47
9774;BME280;4926;42.670;23.316;2023-04-07T12:30:13;94257.69;;;9.74;46.41
9774;BME280;4926;42.670;23.316;2023-04-07T12:32:42;94254.06;;;9.83;46.42
9774;BME280;4926;42.670;23.316;2023-04-07T12:35:08;94251.06;;;10.08;46.14
9774;BME280;4926;42.670;23.316;2023-04-07T12:37:35;94246.22;;;10.43;45.91
9774;BME280;4926;42.670;23.316;2023-04-07T12:40:03;94241.94;;;10.74;45.02
9774;BME280;4926;42.670;23.316;2023-04-07T12:42:30;94240.13;;;10.56;45.02
9774;BME280;4926;42.670;23.316;2023-04-07T12:44:56;94243.34;;;10.07;45.65
9774;BME280;4926;42.670;23.316;2023-04-07T12:47:24;94247.53;;;9.94;45.73
9774;BME280;4926;42.670;23.316;2023-04-07T12:49:53;94243.94;;;9.85;46.01
9774;BME280;4926;42.670;23.316;2023-04-07T12:52:20;94257.28;;;9.99;46.21
9774;BME280;4926;42.670;23.316;2023-04-07T12:54:50;94252.34;;;9.92;45.98
9774;BME280;4926;42.670;23.316;2023-04-07T12:57:17;94250.88;;;10.19;46.01
9774;BME280;4926;42.670;23.316;2023-04-07T12:59:44;94249.25;;;9.85;46.35
9774;BME280;4926;42.670;23.316;2023-04-07T13:02:11;94261.31;;;9.78;46.76
9774;BME280;4926;42.670;23.316;2023-04-07T13:07:23;94266.84;;;9.81;47.08
9774;BME280;4926;42.670;23.316;2023-04-07T13:09:50;94269.47;;;9.86;46.69
9774;BME280;4926;42.670;23.316;2023-04-07T13:12:17;94271.25;;;9.54;47.17
9774;BME280;4926;42.670;23.316;2023-04-07T13:14:43;94258.84;;;9.49;47.42
9774;BME280;4926;42.670;23.316;2023-04-07T13:17:10;94256.59;;;9.75;46.58
9774;BME280;4926;42.670;23.316;2023-04-07T13:19:38;94276.84;;;9.52;47.39
9774;BME280;4926;42.670;23.316;2023-04-07T13:22:05;94272.81;;;9.36;47.59
9774;BME280;4926;42.670;23.316;2023-04-07T13:24:32;94274.84;;;9.02;48.47
9774;BME280;4926;42.670;23.316;2023-04-07T13:26:59;94285.16;;;8.80;48.76
9774;BME280;4926;42.670;23.316;2023-04-07T13:29:27;94292.91;;;9.00;48.96
9774;BME280;4926;42.670;23.316;2023-04-07T13:32:03;94289.63;;;9.08;48.22
9774;BME280;4926;42.670;23.316;2023-04-07T13:34:33;94280.09;;;9.07;48.63
9774;BME280;4926;42.670;23.316;2023-04-07T13:37:02;94282.63;;;9.17;48.85